createdAt,value
2019-06-20T00:00:48.766Z,99.90
2019-06-20T00:03:16.502Z,99.80
2019-06-20T00:05:44.328Z,99.10
2019-06-20T00:08:12.053Z,99.10
2019-06-20T00:10:40.023Z,99.00
2019-06-20T00:13:07.702Z,99.40
2019-06-20T00:15:37.336Z,99.80
2019-06-20T00:18:05.159Z,99.90
2019-06-20T00:20:32.880Z,99.40
2019-06-20T00:23:00.600Z,99.60
2019-06-20T00:25:28.191Z,99.80
2019-06-20T00:27:56.023Z,99.90
2019-06-20T00:30:23.735Z,99.90
2019-06-20T00:32:51.525Z,99.90
2019-06-20T00:35:19.335Z,99.90
2019-06-20T00:37:47.187Z,99.90
2019-06-20T00:40:16.000Z,99.90
2019-06-20T00:42:43.824Z,99.90
2019-06-20T00:45:49.631Z,99.70
2019-06-20T00:48:22.214Z,99.90
2019-06-20T00:50:50.067Z,99.90
2019-06-20T00:53:17.789Z,99.90
2019-06-20T00:55:45.616Z,99.90
2019-06-20T00:58:13.538Z,99.90
2019-06-20T01:00:41.223Z,99.90
2019-06-20T01:03:08.912Z,99.90
2019-06-20T01:05:36.605Z,99.90
2019-06-20T01:08:06.449Z,99.90
2019-06-20T01:10:34.152Z,99.90
2019-06-20T01:13:01.960Z,99.90
2019-06-20T01:15:29.688Z,99.90
2019-06-20T01:17:57.449Z,99.90
2019-06-20T01:20:25.350Z,99.90
2019-06-20T01:22:53.326Z,99.90
2019-06-20T01:25:35.712Z,99.90
2019-06-20T01:28:03.737Z,99.90
2019-06-20T01:30:31.758Z,99.90
2019-06-20T01:32:59.453Z,99.90
2019-06-20T01:35:27.128Z,99.90
2019-06-20T01:37:54.880Z,99.90
2019-06-20T01:40:22.597Z,99.90
2019-06-20T01:42:50.333Z,99.90
2019-06-20T01:45:18.495Z,99.90
2019-06-20T01:47:46.244Z,99.90
2019-06-20T01:50:14.220Z,99.90
2019-06-20T01:52:41.939Z,99.90
2019-06-20T01:55:09.960Z,99.90
2019-06-20T01:57:38.050Z,99.90
2019-06-20T02:00:07.191Z,99.90
2019-06-20T02:02:34.902Z,99.90
2019-06-20T02:05:02.802Z,99.90
2019-06-20T02:07:30.660Z,99.90
2019-06-20T02:09:58.620Z,99.90
2019-06-20T02:12:26.425Z,99.90
2019-06-20T02:14:54.215Z,99.90
2019-06-20T02:17:21.984Z,99.90
2019-06-20T02:19:49.665Z,99.90
2019-06-20T02:22:17.406Z,99.90
2019-06-20T02:24:45.315Z,99.90
2019-06-20T02:27:13.178Z,99.90
2019-06-20T02:29:40.853Z,99.90
2019-06-20T02:32:08.656Z,99.90
2019-06-20T02:34:37.040Z,99.90
2019-06-20T02:37:04.848Z,99.90
2019-06-20T02:39:32.588Z,99.90
2019-06-20T02:42:00.485Z,99.90
2019-06-20T02:44:30.361Z,99.90
2019-06-20T02:46:57.758Z,99.90
2019-06-20T02:49:25.932Z,99.90
2019-06-20T02:51:53.655Z,99.90
2019-06-20T02:54:21.646Z,99.90
2019-06-20T02:56:49.394Z,99.90
2019-06-20T02:59:17.097Z,99.90
2019-06-20T03:01:44.858Z,99.90
2019-06-20T03:04:12.974Z,99.90
2019-06-20T03:06:40.729Z,99.90
2019-06-20T03:09:08.698Z,99.90
2019-06-20T03:11:36.461Z,99.90
2019-06-20T03:14:04.848Z,99.90
2019-06-20T03:16:32.622Z,99.90
2019-06-20T03:19:00.339Z,99.90
2019-06-20T03:21:28.153Z,99.90
2019-06-20T03:23:56.142Z,99.90
2019-06-20T03:26:23.826Z,99.90
2019-06-20T03:28:51.579Z,99.90
2019-06-20T03:31:19.287Z,99.90
2019-06-20T03:33:47.039Z,99.90
2019-06-20T03:36:14.779Z,99.90
2019-06-20T03:38:42.602Z,99.90
2019-06-20T03:41:10.440Z,99.90
2019-06-20T03:43:38.158Z,99.90
2019-06-20T03:46:05.878Z,99.90
2019-06-20T03:48:33.430Z,99.90
2019-06-20T03:51:01.177Z,99.90
2019-06-20T03:53:28.851Z,99.90
2019-06-20T03:55:56.682Z,99.90
2019-06-20T03:58:24.389Z,99.90
2019-06-20T04:00:52.139Z,99.90
2019-06-20T04:03:19.879Z,99.90
2019-06-20T04:05:47.566Z,99.90
2019-06-20T04:08:15.359Z,99.90
2019-06-20T04:10:42.954Z,99.90
2019-06-20T04:13:10.687Z,99.90
2019-06-20T04:15:38.328Z,99.90
2019-06-20T04:18:05.987Z,99.90
2019-06-20T04:20:33.707Z,99.90
2019-06-20T04:23:01.487Z,99.90
2019-06-20T04:25:29.525Z,99.90
2019-06-20T04:27:57.193Z,99.90
2019-06-20T04:30:24.886Z,99.90
2019-06-20T04:32:52.639Z,99.90
2019-06-20T04:35:20.262Z,99.90
2019-06-20T04:37:48.223Z,99.90
2019-06-20T04:40:16.760Z,99.90
2019-06-20T04:42:44.498Z,99.90
2019-06-20T04:45:35.469Z,99.90
2019-06-20T04:48:01.584Z,99.90
2019-06-20T04:50:29.682Z,99.90
2019-06-20T04:52:57.288Z,99.90
2019-06-20T04:55:25.006Z,99.90
2019-06-20T04:57:52.825Z,99.90
2019-06-20T05:00:20.668Z,99.90
2019-06-20T05:02:48.416Z,99.90
2019-06-20T05:05:16.595Z,99.90
2019-06-20T05:07:44.304Z,99.90
2019-06-20T05:10:12.266Z,99.90
2019-06-20T05:12:40.033Z,99.90
2019-06-20T05:15:08.021Z,99.90
2019-06-20T05:17:35.752Z,99.90
2019-06-20T05:20:04.129Z,99.90
2019-06-20T05:22:34.018Z,99.90
2019-06-20T05:25:01.782Z,99.90
2019-06-20T05:27:30.897Z,99.90
2019-06-20T05:29:58.692Z,99.90
2019-06-20T05:32:26.429Z,99.90
2019-06-20T05:34:54.146Z,99.90
2019-06-20T05:37:26.130Z,99.90
2019-06-20T05:39:55.855Z,99.90
2019-06-20T05:42:23.561Z,99.90
2019-06-20T05:44:51.266Z,99.90
2019-06-20T05:47:33.440Z,99.90
2019-06-20T05:50:01.479Z,99.90
2019-06-20T05:52:29.328Z,99.90
2019-06-20T05:54:57.689Z,99.90
2019-06-20T05:57:25.488Z,99.90
2019-06-20T05:59:53.223Z,99.90
2019-06-20T06:02:20.953Z,99.90
2019-06-20T06:04:48.603Z,99.90
2019-06-20T06:07:16.444Z,99.90
2019-06-20T06:09:45.677Z,99.90
2019-06-20T06:12:13.630Z,99.90
2019-06-20T06:14:42.466Z,99.90
2019-06-20T06:17:10.416Z,99.90
2019-06-20T06:19:39.298Z,99.90
2019-06-20T06:22:07.049Z,99.90
2019-06-20T06:24:35.128Z,99.90
2019-06-20T06:27:03.030Z,99.90
2019-06-20T06:29:35.990Z,99.00
2019-06-20T06:32:05.158Z,99.50
2019-06-20T06:34:34.122Z,99.40
2019-06-20T06:37:05.962Z,98.80
2019-06-20T06:39:33.853Z,98.70
2019-06-20T06:42:01.814Z,98.90
2019-06-20T06:44:31.973Z,99.20
2019-06-20T06:47:00.260Z,98.90
2019-06-20T06:49:34.784Z,98.70
2019-06-20T06:52:04.731Z,98.80
2019-06-20T06:54:34.984Z,98.80
2019-06-20T06:57:02.829Z,99.80
2019-06-20T06:59:30.605Z,99.70
2019-06-20T07:01:58.468Z,99.90
2019-06-20T07:04:26.437Z,99.90
2019-06-20T07:06:54.390Z,99.90
2019-06-20T07:09:22.156Z,99.90
2019-06-20T07:11:52.238Z,99.90
2019-06-20T07:14:20.238Z,99.60
2019-06-20T07:16:59.737Z,98.70
2019-06-20T07:19:17.525Z,99.10
2019-06-20T07:21:46.503Z,98.50
2019-06-20T07:24:14.312Z,99.30
2019-06-20T07:26:45.075Z,98.90
2019-06-20T07:29:12.816Z,97.80
2019-06-20T07:31:40.592Z,98.40
2019-06-20T07:34:08.370Z,98.40
2019-06-20T07:36:36.256Z,98.60
2019-06-20T07:39:07.309Z,97.60
2019-06-20T07:41:37.070Z,97.50
2019-06-20T07:44:04.800Z,97.30
2019-06-20T07:46:32.552Z,97.40
2019-06-20T07:49:00.345Z,97.60
2019-06-20T07:51:28.172Z,97.10
2019-06-20T07:53:57.903Z,95.90
2019-06-20T07:56:25.592Z,96.70
2019-06-20T07:58:53.422Z,97.10
2019-06-20T08:01:21.167Z,96.00
2019-06-20T08:03:49.074Z,96.70
2019-06-20T08:06:16.844Z,96.00
2019-06-20T08:09:05.815Z,95.60
2019-06-20T08:11:33.690Z,95.60
2019-06-20T08:14:04.791Z,96.30
2019-06-20T08:16:33.627Z,96.00
2019-06-20T08:19:03.244Z,95.00
2019-06-20T08:21:31.428Z,95.90
2019-06-20T08:24:00.983Z,95.50
2019-06-20T08:26:29.023Z,96.00
2019-06-20T08:29:10.321Z,96.30
2019-06-20T08:31:26.374Z,95.00
2019-06-20T08:34:00.502Z,94.40
2019-06-20T08:36:28.477Z,93.60
2019-06-20T08:38:57.537Z,93.20
2019-06-20T08:41:26.122Z,93.50
2019-06-20T08:43:55.336Z,93.40
2019-06-20T08:46:23.699Z,93.40
2019-06-20T08:48:51.578Z,94.10
2019-06-20T08:51:19.575Z,93.30
2019-06-20T08:54:03.468Z,93.20
2019-06-20T08:56:31.869Z,93.20
2019-06-20T08:59:00.586Z,93.20
2019-06-20T09:01:28.716Z,93.50
2019-06-20T09:03:58.658Z,93.30
2019-06-20T09:06:27.730Z,93.90
2019-06-20T09:09:00.010Z,94.00
2019-06-20T09:11:29.099Z,94.60
2019-06-20T09:13:57.479Z,94.10
2019-06-20T09:16:28.616Z,94.70
2019-06-20T09:18:56.777Z,93.30
2019-06-20T09:21:25.176Z,92.80
2019-06-20T09:23:54.162Z,92.90
2019-06-20T09:26:22.665Z,93.50
2019-06-20T09:28:52.210Z,92.90
2019-06-20T09:31:20.539Z,93.00
2019-06-20T09:33:48.736Z,92.70
2019-06-20T09:36:16.540Z,92.60
2019-06-20T09:38:44.449Z,92.30
2019-06-20T09:41:12.383Z,92.30
2019-06-20T09:43:40.196Z,93.00
2019-06-20T09:46:08.074Z,92.40
2019-06-20T09:48:36.220Z,92.90
2019-06-20T09:51:04.145Z,92.10
2019-06-20T09:53:32.729Z,91.50
2019-06-20T09:56:01.541Z,92.20
2019-06-20T09:58:29.780Z,92.30
2019-06-20T10:00:59.066Z,91.00
2019-06-20T10:03:27.043Z,91.30
2019-06-20T10:05:56.547Z,91.20
2019-06-20T10:08:27.157Z,91.50
2019-06-20T10:10:56.270Z,92.00
2019-06-20T10:13:24.491Z,91.50
2019-06-20T10:15:53.479Z,90.90
2019-06-20T10:18:27.597Z,90.10
2019-06-20T10:20:55.583Z,90.60
2019-06-20T10:23:25.256Z,90.80
2019-06-20T10:25:53.657Z,90.90
2019-06-20T10:28:21.840Z,91.50
2019-06-20T10:30:49.607Z,90.90
2019-06-20T10:33:17.344Z,90.90
2019-06-20T10:35:46.664Z,90.60
2019-06-20T10:38:15.972Z,91.40
2019-06-20T10:40:46.068Z,91.30
2019-06-20T10:43:15.229Z,91.00
2019-06-20T10:45:44.189Z,91.40
2019-06-20T10:48:12.783Z,92.30
2019-06-20T10:50:40.954Z,91.50
2019-06-20T10:53:10.088Z,91.90
2019-06-20T10:55:37.693Z,91.70
2019-06-20T10:58:05.745Z,91.50
2019-06-20T11:00:36.902Z,91.20
2019-06-20T11:03:05.013Z,91.40
2019-06-20T11:05:33.709Z,91.30
2019-06-20T11:08:04.876Z,91.70
2019-06-20T11:10:33.556Z,91.60
2019-06-20T11:13:02.044Z,91.50
2019-06-20T11:15:31.209Z,90.60
2019-06-20T11:17:59.086Z,90.50
2019-06-20T11:20:27.501Z,90.10
2019-06-20T11:22:56.021Z,90.40
2019-06-20T11:25:28.441Z,90.00
2019-06-20T11:28:24.604Z,90.20
2019-06-20T11:31:49.613Z,90.20
2019-06-20T11:35:15.415Z,90.00
2019-06-20T11:38:06.558Z,90.30
2019-06-20T11:40:53.734Z,90.60
2019-06-20T11:43:40.041Z,90.50
2019-06-20T11:46:42.680Z,90.00
2019-06-20T11:49:14.212Z,90.10
2019-06-20T11:52:14.899Z,89.70
2019-06-20T11:54:50.636Z,89.70
2019-06-20T11:57:32.587Z,89.70
2019-06-20T12:00:08.311Z,89.80
2019-06-20T12:02:43.685Z,90.60
2019-06-20T12:05:17.795Z,90.40
2019-06-20T12:07:47.194Z,90.20
2019-06-20T12:10:15.666Z,89.60
2019-06-20T12:12:44.714Z,86.60
2019-06-20T12:15:13.237Z,85.80
2019-06-20T12:18:07.318Z,86.90
2019-06-20T12:20:44.509Z,86.10
2019-06-20T12:23:15.329Z,85.30
2019-06-20T12:25:44.281Z,85.90
2019-06-20T12:28:17.098Z,87.30
2019-06-20T12:31:24.281Z,87.50
2019-06-20T12:34:11.995Z,87.90
2019-06-20T12:37:47.979Z,88.00
2019-06-20T12:41:36.714Z,88.80
2019-06-20T12:48:01.552Z,88.40
2019-06-20T12:50:58.323Z,89.30
2019-06-20T12:53:50.937Z,89.20
2019-06-20T13:00:41.614Z,89.70
2019-06-20T13:03:43.445Z,90.00
2019-06-20T13:06:45.049Z,90.20
2019-06-20T13:09:21.022Z,90.00
2019-06-20T13:12:05.579Z,90.00
2019-06-20T13:15:35.546Z,89.30
2019-06-20T13:18:23.392Z,89.10
2019-06-20T13:21:25.901Z,89.20
2019-06-20T13:24:18.708Z,88.80
2019-06-20T13:28:08.446Z,89.30
2019-06-20T13:30:57.062Z,89.10
2019-06-20T13:37:47.332Z,88.80
2019-06-20T13:44:39.574Z,90.00
2019-06-20T13:48:21.969Z,90.20
2019-06-20T13:51:08.871Z,90.10
2019-06-20T13:54:14.773Z,90.50
2019-06-20T14:00:59.297Z,90.40
2019-06-20T14:03:34.069Z,90.60
2019-06-20T14:06:10.038Z,90.10
2019-06-20T14:09:12.995Z,90.30
2019-06-20T14:15:08.181Z,90.60
2019-06-20T14:18:06.763Z,90.50
2019-06-20T14:21:32.032Z,90.50
2019-06-20T14:24:30.355Z,90.80
2019-06-20T14:27:15.659Z,90.80
2019-06-20T14:30:08.126Z,90.80
2019-06-20T14:32:54.167Z,90.90
2019-06-20T14:35:47.852Z,90.30
2019-06-20T14:38:24.004Z,90.30
2019-06-20T14:41:05.843Z,90.20
2019-06-20T14:43:44.202Z,89.70
2019-06-20T14:46:24.480Z,90.00
2019-06-20T14:48:56.463Z,89.70
2019-06-20T14:51:48.399Z,89.40
2019-06-20T14:54:21.525Z,89.30
2019-06-20T14:57:18.033Z,88.40
2019-06-20T14:59:49.921Z,88.50
2019-06-20T15:02:38.589Z,88.70
2019-06-20T15:06:03.396Z,87.50
2019-06-20T15:09:17.245Z,87.80
2019-06-20T15:11:56.732Z,88.10
2019-06-20T15:18:32.643Z,86.70
2019-06-20T15:21:50.132Z,86.90
2019-06-20T15:24:45.117Z,86.40
2019-06-20T15:28:09.285Z,86.40
2019-06-20T15:30:57.792Z,86.70
2019-06-20T15:33:42.137Z,86.60
2019-06-20T15:36:29.448Z,86.80
2019-06-20T15:39:17.300Z,87.30
2019-06-20T15:41:52.130Z,87.50
2019-06-20T15:44:58.162Z,87.80
2019-06-20T15:47:41.673Z,86.20
2019-06-20T15:50:54.591Z,85.00
2019-06-20T15:54:15.280Z,85.50
2019-06-20T15:57:34.896Z,84.10
2019-06-20T16:00:38.983Z,85.70
2019-06-20T16:03:19.654Z,86.40
2019-06-20T16:06:49.629Z,86.10
2019-06-20T16:09:33.177Z,86.30
2019-06-20T16:12:14.793Z,84.80
2019-06-20T16:14:59.642Z,84.70
2019-06-20T16:18:13.453Z,83.50
2019-06-20T16:21:45.736Z,83.70
2019-06-20T16:24:52.192Z,85.10
2019-06-20T16:28:00.590Z,82.90
2019-06-20T16:30:33.712Z,83.00
2019-06-20T16:33:43.573Z,83.40
2019-06-20T16:36:38.247Z,83.10
2019-06-20T16:39:35.222Z,84.20
2019-06-20T16:42:42.429Z,83.60
2019-06-20T16:45:39.952Z,81.10
2019-06-20T16:48:55.027Z,81.30
2019-06-20T16:51:55.037Z,81.80
2019-06-20T16:54:31.049Z,82.00
2019-06-20T16:57:22.062Z,81.60
2019-06-20T16:59:57.515Z,81.40
2019-06-20T17:02:37.660Z,82.30
2019-06-20T17:05:12.613Z,82.90
2019-06-20T17:08:14.055Z,82.60
2019-06-20T17:11:03.352Z,84.60
2019-06-20T17:14:00.161Z,84.80
2019-06-20T17:16:41.851Z,85.20
2019-06-20T17:19:28.535Z,85.70
2019-06-20T17:22:48.382Z,86.80
2019-06-20T17:30:01.797Z,88.60
2019-06-20T17:33:26.984Z,90.90
2019-06-20T17:35:57.575Z,91.20
2019-06-20T17:38:41.568Z,91.20
2019-06-20T17:44:14.673Z,90.90
2019-06-20T17:47:00.784Z,90.70
2019-06-20T17:49:43.252Z,91.00
2019-06-20T17:52:42.369Z,90.70
2019-06-20T17:55:32.800Z,90.40
2019-06-20T17:58:17.148Z,90.60
2019-06-20T18:01:05.972Z,90.40
2019-06-20T18:03:54.703Z,90.70
2019-06-20T18:06:35.029Z,91.00
2019-06-20T18:09:19.463Z,90.80
2019-06-20T18:11:56.683Z,90.70
2019-06-20T18:14:39.110Z,90.50
2019-06-20T18:20:12.509Z,90.10
2019-06-20T18:22:50.175Z,90.50
2019-06-20T18:25:31.742Z,90.40
2019-06-20T18:28:05.118Z,90.40
2019-06-20T18:30:49.114Z,90.50
2019-06-20T18:33:23.325Z,90.70
2019-06-20T18:35:52.823Z,90.80
2019-06-20T18:38:21.516Z,90.90
2019-06-20T18:41:00.885Z,91.20
2019-06-20T18:43:37.043Z,91.40
2019-06-20T18:46:13.764Z,91.60
2019-06-20T18:48:47.283Z,91.60
2019-06-20T18:51:21.236Z,91.80
2019-06-20T18:53:56.636Z,92.20
2019-06-20T18:56:28.924Z,92.30
2019-06-20T18:59:06.985Z,92.50
2019-06-20T19:01:40.015Z,92.80
2019-06-20T19:04:08.305Z,91.40
2019-06-20T19:06:41.317Z,91.80
2019-06-20T19:09:27.855Z,92.10
2019-06-20T19:11:55.867Z,92.40
2019-06-20T19:14:29.545Z,92.80
2019-06-20T19:16:57.593Z,93.20
2019-06-20T19:19:25.696Z,93.70
2019-06-20T19:21:56.002Z,93.80
2019-06-20T19:24:26.658Z,94.10
2019-06-20T19:26:54.576Z,94.50
2019-06-20T19:29:22.831Z,95.20
2019-06-20T19:31:58.971Z,95.00
2019-06-20T19:35:01.364Z,95.20
2019-06-20T19:37:29.178Z,95.50
2019-06-20T19:40:19.284Z,95.70
2019-06-20T19:42:54.686Z,96.10
2019-06-20T19:45:25.135Z,96.60
2019-06-20T19:47:55.478Z,96.60
2019-06-20T19:50:32.248Z,96.70
2019-06-20T19:53:11.138Z,97.00
2019-06-20T19:55:42.660Z,97.00
2019-06-20T19:58:17.394Z,96.70
2019-06-20T20:00:51.434Z,96.40
2019-06-20T20:03:26.893Z,96.10
2019-06-20T20:05:58.588Z,96.40
2019-06-20T20:08:39.068Z,96.40
2019-06-20T20:11:33.925Z,96.40
2019-06-20T20:14:54.767Z,96.50
2019-06-20T20:18:21.208Z,97.00
2019-06-20T20:21:00.519Z,97.20
2019-06-20T20:24:32.578Z,97.20
2019-06-20T20:35:34.447Z,97.90
2019-06-20T20:43:01.624Z,99.60
2019-06-20T20:46:31.146Z,99.90
2019-06-20T20:53:39.277Z,99.90
2019-06-20T20:57:10.273Z,99.50
2019-06-20T21:12:41.680Z,99.90
2019-06-20T21:14:30.048Z,99.90
2019-06-20T21:47:59.250Z,99.90
2019-06-20T21:51:35.451Z,99.90
2019-06-20T21:54:03.445Z,99.90
2019-06-20T21:56:35.739Z,99.90
2019-06-20T22:04:21.047Z,99.90
2019-06-20T22:10:48.896Z,99.90
2019-06-20T22:13:32.558Z,99.90
2019-06-20T22:17:04.781Z,99.90
2019-06-20T22:19:44.685Z,99.90
2019-06-20T22:22:12.954Z,99.90
2019-06-20T22:24:40.940Z,99.90
2019-06-20T22:27:13.489Z,99.90
2019-06-20T22:29:54.415Z,99.90
2019-06-20T22:32:37.280Z,99.90
2019-06-20T22:35:09.140Z,99.90
2019-06-20T22:37:45.101Z,99.90
2019-06-20T22:40:13.720Z,99.90
2019-06-20T22:42:52.788Z,99.90
2019-06-20T22:57:08.670Z,99.90
2019-06-20T23:00:41.094Z,99.90
2019-06-20T23:03:49.595Z,99.90
2019-06-20T23:07:18.338Z,99.90
2019-06-20T23:10:15.586Z,99.90
2019-06-20T23:13:15.341Z,99.90
2019-06-20T23:17:59.426Z,99.90
2019-06-20T23:19:45.831Z,99.90
2019-06-20T23:23:18.015Z,99.90
2019-06-20T23:26:07.509Z,99.90
2019-06-20T23:29:09.762Z,99.90
2019-06-20T23:40:09.783Z,99.90
2019-06-20T23:43:34.489Z,99.90
2019-06-20T23:51:00.836Z,99.90
2019-06-20T23:54:10.045Z,99.90
